createdAt,value
2022-12-13T00:02:01.558Z,18.17
2022-12-13T00:04:30.027Z,18.18
2022-12-13T00:06:58.463Z,18.16
2022-12-13T00:09:26.806Z,18.19
2022-12-13T00:11:55.772Z,18.21
2022-12-13T00:14:24.137Z,18.23
2022-12-13T00:16:52.596Z,18.25
2022-12-13T00:19:21.452Z,18.26
2022-12-13T00:21:49.817Z,18.29
2022-12-13T00:24:19.300Z,18.32
2022-12-13T00:26:47.694Z,18.37
2022-12-13T00:29:16.049Z,18.40
2022-12-13T00:32:01.109Z,18.46
2022-12-13T00:34:30.421Z,18.52
2022-12-13T00:37:02.009Z,18.57
2022-12-13T00:39:30.534Z,18.62
2022-12-13T00:41:59.392Z,18.66
2022-12-13T00:44:27.922Z,18.72
2022-12-13T00:46:56.325Z,18.78
2022-12-13T00:49:25.566Z,18.84
2022-12-13T00:51:53.984Z,18.89
2022-12-13T00:54:22.436Z,18.91
2022-12-13T00:56:52.489Z,18.95
2022-12-13T00:59:20.928Z,18.97
2022-12-13T01:01:49.640Z,19.01
2022-12-13T01:04:18.121Z,19.05
2022-12-13T01:06:50.759Z,19.08
2022-12-13T01:09:22.135Z,19.11
2022-12-13T01:11:51.733Z,19.16
2022-12-13T01:14:20.661Z,19.22
2022-12-13T01:16:49.028Z,19.27
2022-12-13T01:19:17.952Z,19.32
2022-12-13T01:21:46.274Z,19.34
2022-12-13T01:24:14.677Z,19.37
2022-12-13T01:26:43.162Z,19.42
2022-12-13T01:29:12.375Z,19.46
2022-12-13T01:31:42.579Z,19.52
2022-12-13T01:34:16.215Z,19.60
2022-12-13T01:36:46.334Z,19.67
2022-12-13T01:39:17.715Z,19.77
2022-12-13T01:41:48.278Z,19.87
2022-12-13T01:44:59.392Z,19.93
2022-12-13T01:47:45.354Z,19.94
2022-12-13T01:50:19.547Z,19.98
2022-12-13T01:52:49.778Z,19.99
2022-12-13T01:55:21.478Z,20.01
2022-12-13T01:57:52.034Z,20.04
2022-12-13T02:00:20.781Z,20.09
2022-12-13T02:02:50.860Z,20.14
2022-12-13T02:06:01.854Z,20.22
2022-12-13T02:08:30.934Z,20.31
2022-12-13T02:11:05.207Z,20.36
2022-12-13T02:13:33.520Z,20.40
2022-12-13T02:16:23.535Z,20.47
2022-12-13T02:19:28.998Z,20.52
2022-12-13T02:22:06.958Z,20.59
2022-12-13T02:24:35.231Z,20.66
2022-12-13T02:27:11.091Z,20.73
2022-12-13T02:29:57.989Z,20.79
2022-12-13T02:32:50.488Z,20.86
2022-12-13T02:35:23.141Z,20.92
2022-12-13T02:38:24.878Z,20.97
2022-12-13T02:41:01.767Z,21.00
2022-12-13T02:43:46.511Z,21.06
2022-12-13T02:46:22.740Z,21.12
2022-12-13T02:48:56.122Z,21.16
2022-12-13T02:51:26.404Z,21.23
2022-12-13T02:53:54.869Z,21.31
2022-12-13T02:56:23.213Z,21.38
2022-12-13T02:58:56.414Z,21.45
2022-12-13T03:02:10.366Z,21.52
2022-12-13T03:05:32.364Z,21.61
2022-12-13T03:08:22.477Z,21.68
2022-12-13T03:11:18.823Z,21.77
2022-12-13T03:14:01.572Z,21.83
2022-12-13T03:16:44.769Z,21.90
2022-12-13T03:19:14.280Z,21.95
2022-12-13T03:21:49.902Z,22.00
2022-12-13T03:24:21.261Z,22.05
2022-12-13T03:26:51.568Z,22.12
2022-12-13T03:29:23.941Z,22.17
2022-12-13T03:31:54.840Z,22.19
2022-12-13T03:34:23.547Z,22.24
2022-12-13T03:36:53.908Z,22.27
2022-12-13T03:39:23.851Z,22.34
2022-12-13T03:41:52.807Z,22.38
2022-12-13T03:44:21.156Z,22.43
2022-12-13T03:46:49.523Z,22.47
2022-12-13T03:49:17.905Z,22.53
2022-12-13T03:51:46.869Z,22.58
2022-12-13T03:54:15.354Z,22.60
2022-12-13T03:56:43.739Z,22.66
2022-12-13T03:59:12.071Z,22.70
2022-12-13T04:01:40.500Z,22.75
2022-12-13T04:04:09.071Z,22.79
2022-12-13T04:06:37.414Z,22.84
2022-12-13T04:09:07.986Z,22.88
2022-12-13T04:11:54.661Z,22.91
2022-12-13T04:14:23.189Z,22.95
2022-12-13T04:16:53.100Z,23.01
2022-12-13T04:19:23.426Z,23.07
2022-12-13T04:21:55.070Z,23.14
2022-12-13T04:24:32.138Z,23.18
2022-12-13T04:27:03.364Z,23.24
2022-12-13T04:29:34.303Z,23.29
2022-12-13T04:32:05.279Z,23.34
2022-12-13T04:34:53.615Z,23.42
2022-12-13T04:37:29.754Z,23.45
2022-12-13T04:40:00.836Z,23.49
2022-12-13T04:42:29.790Z,23.52
2022-12-13T04:44:58.144Z,23.56
2022-12-13T04:47:26.467Z,23.60
2022-12-13T04:49:56.084Z,23.65
2022-12-13T04:52:24.425Z,23.70
2022-12-13T04:54:55.712Z,23.77
2022-12-13T04:57:25.512Z,23.83
2022-12-13T04:59:53.895Z,23.88
2022-12-13T05:02:23.388Z,23.93
2022-12-13T05:04:53.787Z,23.98
2022-12-13T05:07:23.784Z,24.05
2022-12-13T05:09:52.139Z,24.08
2022-12-13T05:12:22.481Z,24.11
2022-12-13T05:14:53.071Z,24.14
2022-12-13T05:17:22.327Z,24.16
2022-12-13T05:19:50.632Z,24.17
2022-12-13T05:22:20.808Z,24.19
2022-12-13T05:24:49.822Z,24.23
2022-12-13T05:27:25.069Z,24.26
2022-12-13T05:30:03.558Z,24.30
2022-12-13T05:32:44.288Z,24.33
2022-12-13T05:35:21.760Z,24.38
2022-12-13T05:37:55.306Z,24.41
2022-12-13T05:40:25.368Z,24.45
2022-12-13T05:43:01.658Z,24.50
2022-12-13T05:45:32.721Z,24.54
2022-12-13T05:48:01.476Z,24.56
2022-12-13T05:50:30.231Z,24.57
2022-12-13T05:52:58.704Z,24.59
2022-12-13T05:55:27.197Z,24.58
2022-12-13T05:57:55.511Z,24.61
2022-12-13T06:00:31.182Z,24.65
2022-12-13T06:03:01.594Z,24.67
2022-12-13T06:05:31.967Z,24.71
2022-12-13T06:08:00.503Z,24.75
2022-12-13T06:10:35.166Z,24.77
2022-12-13T06:13:21.615Z,24.80
2022-12-13T06:16:01.690Z,24.85
2022-12-13T06:18:33.165Z,24.90
2022-12-13T06:21:04.822Z,24.93
2022-12-13T06:23:34.911Z,24.95
2022-12-13T06:26:07.537Z,25.00
2022-12-13T06:28:36.258Z,25.01
2022-12-13T06:31:05.983Z,25.04
2022-12-13T06:33:39.883Z,25.03
2022-12-13T06:36:08.706Z,25.03
2022-12-13T06:38:43.306Z,25.04
2022-12-13T06:41:15.061Z,25.07
2022-12-13T06:43:45.031Z,25.07
2022-12-13T06:46:14.038Z,25.08
2022-12-13T06:48:42.839Z,25.10
2022-12-13T06:51:11.693Z,25.12
2022-12-13T06:53:41.615Z,25.14
2022-12-13T06:56:12.477Z,25.15
2022-12-13T06:58:42.133Z,25.14
2022-12-13T07:01:23.809Z,25.16
2022-12-13T07:03:55.809Z,25.16
2022-12-13T07:06:25.695Z,25.16
2022-12-13T07:08:56.645Z,25.15
2022-12-13T07:11:34.246Z,25.17
2022-12-13T07:14:02.940Z,25.17
2022-12-13T07:16:31.293Z,25.19
2022-12-13T07:19:01.703Z,25.20
2022-12-13T07:21:31.380Z,25.22
2022-12-13T07:24:00.434Z,25.25
2022-12-13T07:26:28.899Z,25.25
2022-12-13T07:28:57.670Z,25.25
2022-12-13T07:31:26.930Z,25.26
2022-12-13T07:33:55.330Z,25.27
2022-12-13T07:36:25.073Z,25.28
2022-12-13T07:38:55.902Z,25.26
2022-12-13T07:41:28.430Z,25.24
2022-12-13T07:43:57.602Z,25.24
2022-12-13T07:46:32.028Z,25.25
2022-12-13T07:49:01.674Z,25.25
2022-12-13T07:51:30.432Z,25.24
2022-12-13T07:53:59.042Z,25.23
2022-12-13T07:56:27.356Z,25.22
2022-12-13T07:58:55.752Z,25.20
2022-12-13T08:01:24.169Z,25.20
2022-12-13T08:03:52.549Z,25.21
2022-12-13T08:06:20.976Z,25.18
2022-12-13T08:08:52.047Z,25.19
2022-12-13T08:11:20.389Z,25.19
2022-12-13T08:13:48.712Z,25.19
2022-12-13T08:16:26.654Z,25.17
2022-12-13T08:19:02.078Z,25.15
2022-12-13T08:21:55.355Z,25.15
2022-12-13T08:24:31.213Z,25.13
2022-12-13T08:27:04.440Z,25.12
2022-12-13T08:29:36.163Z,25.10
2022-12-13T08:32:07.612Z,25.09
2022-12-13T08:34:36.005Z,25.06
2022-12-13T08:37:05.002Z,25.05
2022-12-13T08:39:38.349Z,25.01
2022-12-13T08:42:18.190Z,24.97
2022-12-13T08:44:49.019Z,24.94
2022-12-13T08:47:23.082Z,24.91
2022-12-13T08:50:01.401Z,24.89
2022-12-13T08:52:31.348Z,24.85
2022-12-13T08:54:59.768Z,24.84
2022-12-13T08:57:28.080Z,24.81
2022-12-13T08:59:56.705Z,24.79
2022-12-13T09:02:25.134Z,24.79
2022-12-13T09:04:53.500Z,24.78
2022-12-13T09:07:21.809Z,24.74
2022-12-13T09:09:55.131Z,24.74
2022-12-13T09:12:30.431Z,24.72
2022-12-13T09:15:01.224Z,24.67
2022-12-13T09:17:37.244Z,24.64
2022-12-13T09:20:28.791Z,24.59
2022-12-13T09:23:01.255Z,24.55
2022-12-13T09:25:36.623Z,24.50
2022-12-13T09:28:09.474Z,24.47
2022-12-13T09:30:39.290Z,24.43
2022-12-13T09:33:28.763Z,24.39
2022-12-13T09:35:56.039Z,24.35
2022-12-13T09:38:24.402Z,24.31
2022-12-13T09:40:59.179Z,24.27
2022-12-13T09:43:42.567Z,24.23
2022-12-13T09:46:34.532Z,24.17
2022-12-13T09:49:23.714Z,24.12
2022-12-13T09:52:10.858Z,24.08
2022-12-13T09:54:48.347Z,24.03
2022-12-13T09:57:32.242Z,23.98
2022-12-13T10:00:12.112Z,23.92
2022-12-13T10:02:45.266Z,23.86
2022-12-13T10:05:22.269Z,23.80
2022-12-13T10:07:56.318Z,23.73
2022-12-13T10:10:25.189Z,23.65
2022-12-13T10:13:26.026Z,23.56
2022-12-13T10:16:05.632Z,23.48
2022-12-13T10:18:42.842Z,23.42
2022-12-13T10:21:42.387Z,23.35
2022-12-13T10:24:34.595Z,23.27
2022-12-13T10:27:18.110Z,23.20
2022-12-13T10:30:07.407Z,23.11
2022-12-13T10:32:56.007Z,23.04
2022-12-13T10:35:35.576Z,22.95
2022-12-13T10:38:31.572Z,22.87
2022-12-13T10:41:00.879Z,22.77
2022-12-13T10:43:31.302Z,22.68
2022-12-13T10:45:59.616Z,22.60
2022-12-13T10:48:51.771Z,22.49
2022-12-13T10:51:23.145Z,22.41
2022-12-13T10:53:58.628Z,22.35
2022-12-13T10:56:44.534Z,22.25
2022-12-13T10:59:38.355Z,22.19
2022-12-13T11:02:33.014Z,22.10
2022-12-13T11:05:23.430Z,22.02
2022-12-13T11:07:52.561Z,21.94
2022-12-13T11:10:31.180Z,21.85
2022-12-13T11:13:11.584Z,21.79
2022-12-13T11:15:45.984Z,21.71
2022-12-13T11:18:25.861Z,21.63
2022-12-13T11:21:06.554Z,21.57
2022-12-13T11:23:38.618Z,21.51
2022-12-13T11:26:12.350Z,21.46
2022-12-13T11:29:10.976Z,21.40
2022-12-13T11:32:01.200Z,21.35
2022-12-13T11:34:38.859Z,21.29
2022-12-13T11:37:13.091Z,21.24
2022-12-13T11:40:21.413Z,21.20
2022-12-13T11:43:00.186Z,21.16
2022-12-13T11:45:35.111Z,21.11
2022-12-13T11:48:06.105Z,21.07
2022-12-13T11:50:51.210Z,21.04
2022-12-13T11:53:56.156Z,20.97
2022-12-13T11:56:28.643Z,20.94
2022-12-13T11:59:30.663Z,20.90
2022-12-13T12:02:35.704Z,20.84
2022-12-13T12:05:09.630Z,20.80
2022-12-13T12:08:20.936Z,20.77
2022-12-13T12:10:49.760Z,20.73
2022-12-13T12:13:30.935Z,20.70
2022-12-13T12:16:21.566Z,20.66
2022-12-13T12:18:52.705Z,20.63
2022-12-13T12:22:13.388Z,20.60
2022-12-13T12:25:09.815Z,20.55
2022-12-13T12:27:47.094Z,20.52
2022-12-13T12:30:25.494Z,20.49
2022-12-13T12:33:28.559Z,20.47
2022-12-13T12:36:21.531Z,20.41
2022-12-13T12:38:49.806Z,20.35
2022-12-13T12:41:30.014Z,20.32
2022-12-13T12:44:41.035Z,20.29
2022-12-13T12:50:43.226Z,20.24
2022-12-13T12:53:23.887Z,20.20
2022-12-13T12:56:10.511Z,20.19
2022-12-13T12:59:08.381Z,20.16
2022-12-13T13:01:44.031Z,20.14
2022-12-13T13:04:22.757Z,20.12
2022-12-13T13:07:39.774Z,20.09
2022-12-13T13:10:16.370Z,20.09
2022-12-13T13:13:32.897Z,20.06
2022-12-13T13:15:54.717Z,20.01
2022-12-13T13:18:45.521Z,19.96
2022-12-13T13:21:27.496Z,19.92
2022-12-13T13:24:13.374Z,19.88
2022-12-13T13:26:45.363Z,19.85
2022-12-13T13:29:35.716Z,19.83
2022-12-13T13:32:28.547Z,19.79
2022-12-13T13:35:33.512Z,19.77
2022-12-13T13:38:22.823Z,19.74
2022-12-13T13:40:51.877Z,19.72
2022-12-13T13:43:32.853Z,19.69
2022-12-13T13:46:12.758Z,19.68
2022-12-13T13:49:16.612Z,19.66
2022-12-13T13:52:24.512Z,19.64
2022-12-13T13:55:04.627Z,19.62
2022-12-13T13:58:11.707Z,19.60
2022-12-13T14:01:21.311Z,19.56
2022-12-13T14:04:04.975Z,19.55
2022-12-13T14:07:00.997Z,19.53
2022-12-13T14:09:29.697Z,19.51
2022-12-13T14:12:22.033Z,19.49
2022-12-13T14:15:30.548Z,19.47
2022-12-13T14:18:45.663Z,19.44
2022-12-13T14:21:21.932Z,19.42
2022-12-13T14:24:02.240Z,19.41
2022-12-13T14:26:42.292Z,19.38
2022-12-13T14:29:22.276Z,19.35
2022-12-13T14:31:51.750Z,19.34
2022-12-13T14:34:31.977Z,19.32
2022-12-13T14:37:04.220Z,19.31
2022-12-13T14:39:35.632Z,19.27
2022-12-13T14:42:24.115Z,19.25
2022-12-13T14:44:53.911Z,19.22
2022-12-13T14:47:23.020Z,19.20
2022-12-13T14:49:59.063Z,19.18
2022-12-13T14:52:34.433Z,19.15
2022-12-13T14:55:10.381Z,19.14
2022-12-13T14:57:39.409Z,19.12
2022-12-13T15:00:33.845Z,19.11
2022-12-13T15:03:05.015Z,19.09
2022-12-13T15:05:48.764Z,19.08
2022-12-13T15:08:22.019Z,19.05
2022-12-13T15:10:55.030Z,19.03
2022-12-13T15:13:30.969Z,19.00
2022-12-13T15:16:10.872Z,18.97
2022-12-13T15:18:39.748Z,18.94
2022-12-13T15:21:24.691Z,18.92
2022-12-13T15:23:54.442Z,18.88
2022-12-13T15:26:29.916Z,18.87
2022-12-13T15:29:09.599Z,18.84
2022-12-13T15:31:42.661Z,18.82
2022-12-13T15:34:31.009Z,18.81
2022-12-13T15:37:29.151Z,18.79
2022-12-13T15:40:06.965Z,18.77
2022-12-13T15:42:38.289Z,18.76
2022-12-13T15:45:20.023Z,18.76
2022-12-13T15:47:50.049Z,18.73
2022-12-13T15:50:31.852Z,18.72
2022-12-13T15:53:04.205Z,18.70
2022-12-13T15:55:37.899Z,18.68
2022-12-13T15:58:33.337Z,18.65
2022-12-13T16:01:07.252Z,18.63
2022-12-13T16:03:44.670Z,18.60
2022-12-13T16:06:19.735Z,18.58
2022-12-13T16:08:52.969Z,18.57
2022-12-13T16:11:51.046Z,18.54
2022-12-13T16:14:35.091Z,18.54
2022-12-13T16:17:11.059Z,18.53
2022-12-13T16:19:39.496Z,18.53
2022-12-13T16:22:09.241Z,18.53
2022-12-13T16:24:38.093Z,18.53
2022-12-13T16:27:08.372Z,18.53
2022-12-13T16:29:37.951Z,18.52
2022-12-13T16:32:08.650Z,18.53
2022-12-13T16:34:38.961Z,18.52
2022-12-13T16:37:26.137Z,18.51
2022-12-13T16:39:55.844Z,18.50
2022-12-13T16:42:26.928Z,18.48
2022-12-13T16:45:32.342Z,18.49
2022-12-13T16:47:49.740Z,18.48
2022-12-13T16:50:20.715Z,18.48
2022-12-13T16:52:50.204Z,18.46
2022-12-13T16:55:18.769Z,18.45
2022-12-13T16:58:00.787Z,18.44
2022-12-13T17:00:31.471Z,18.42
2022-12-13T17:03:01.042Z,18.41
2022-12-13T17:05:30.685Z,18.38
2022-12-13T17:07:59.068Z,18.37
2022-12-13T17:10:28.153Z,18.37
2022-12-13T17:12:56.620Z,18.35
2022-12-13T17:15:25.280Z,18.33
2022-12-13T17:17:53.714Z,18.31
2022-12-13T17:20:22.123Z,18.29
2022-12-13T17:22:50.593Z,18.26
2022-12-13T17:25:19.367Z,18.22
2022-12-13T17:27:48.072Z,18.20
2022-12-13T17:30:18.682Z,18.18
2022-12-13T17:32:47.478Z,18.15
2022-12-13T17:35:18.362Z,18.13
2022-12-13T17:37:47.192Z,18.11
2022-12-13T17:40:15.589Z,18.07
2022-12-13T17:42:43.940Z,18.05
2022-12-13T17:45:12.955Z,18.03
2022-12-13T17:47:41.345Z,18.02
2022-12-13T17:50:10.072Z,17.98
2022-12-13T17:52:40.006Z,17.96
2022-12-13T17:55:13.544Z,17.92
2022-12-13T17:57:46.168Z,17.91
2022-12-13T18:00:15.219Z,17.88
2022-12-13T18:02:47.607Z,17.87
2022-12-13T18:05:27.041Z,17.84
2022-12-13T18:07:55.446Z,17.82
2022-12-13T18:10:29.442Z,17.82
2022-12-13T18:12:58.542Z,17.79
2022-12-13T18:15:27.037Z,17.78
2022-12-13T18:18:11.204Z,17.77
2022-12-13T18:20:40.409Z,17.74
2022-12-13T18:23:08.791Z,17.73
2022-12-13T18:25:37.580Z,17.70
2022-12-13T18:28:06.356Z,17.66
2022-12-13T18:30:34.712Z,17.64
2022-12-13T18:33:03.133Z,17.61
2022-12-13T18:35:31.461Z,17.62
2022-12-13T18:37:59.792Z,17.59
2022-12-13T18:40:28.175Z,17.55
2022-12-13T18:42:56.506Z,17.53
2022-12-13T18:45:24.842Z,17.51
2022-12-13T18:47:53.283Z,17.49
2022-12-13T18:50:21.600Z,17.48
2022-12-13T18:52:49.964Z,17.46
2022-12-13T18:55:18.479Z,17.44
2022-12-13T18:57:46.803Z,17.43
2022-12-13T19:00:16.177Z,17.41
2022-12-13T19:02:44.579Z,17.39
2022-12-13T19:05:13.054Z,17.39
2022-12-13T19:07:41.380Z,17.37
2022-12-13T19:10:10.313Z,17.37
2022-12-13T19:12:38.715Z,17.36
2022-12-13T19:15:07.399Z,17.35
2022-12-13T19:17:35.823Z,17.34
2022-12-13T19:20:04.292Z,17.30
2022-12-13T19:22:32.871Z,17.28
2022-12-13T19:25:01.256Z,17.27
2022-12-13T19:27:29.558Z,17.24
2022-12-13T19:29:58.212Z,17.24
2022-12-13T19:32:26.548Z,17.22
2022-12-13T19:34:55.171Z,17.22
2022-12-13T19:37:23.543Z,17.21
2022-12-13T19:39:51.859Z,17.21
2022-12-13T19:42:20.213Z,17.18
2022-12-13T19:44:48.727Z,17.18
2022-12-13T19:47:17.409Z,17.14
2022-12-13T19:49:45.745Z,17.13
2022-12-13T19:52:16.648Z,17.08
2022-12-13T19:54:44.960Z,17.05
2022-12-13T19:57:13.346Z,17.03
2022-12-13T19:59:41.687Z,17.01
2022-12-13T20:02:13.765Z,16.98
2022-12-13T20:04:44.159Z,16.95
2022-12-13T20:07:13.146Z,16.91
2022-12-13T20:09:42.381Z,16.89
2022-12-13T20:12:10.725Z,16.88
2022-12-13T20:14:39.028Z,16.86
2022-12-13T20:17:07.393Z,16.84
2022-12-13T20:19:35.719Z,16.85
2022-12-13T20:22:04.246Z,16.84
2022-12-13T20:24:32.607Z,16.83
2022-12-13T20:27:00.963Z,16.82
2022-12-13T20:29:29.283Z,16.80
2022-12-13T20:31:58.079Z,16.81
2022-12-13T20:34:26.789Z,16.77
2022-12-13T20:36:55.165Z,16.77
2022-12-13T20:39:23.827Z,16.73
2022-12-13T20:41:52.173Z,16.71
2022-12-13T20:44:21.251Z,16.69
2022-12-13T20:46:49.783Z,16.65
2022-12-13T20:49:18.274Z,16.61
2022-12-13T20:51:46.605Z,16.57
2022-12-13T20:54:15.121Z,16.55
2022-12-13T20:56:43.545Z,16.51
2022-12-13T20:59:14.399Z,16.51
2022-12-13T21:01:45.249Z,16.50
2022-12-13T21:04:17.830Z,16.50
2022-12-13T21:06:46.157Z,16.50
2022-12-13T21:09:14.548Z,16.48
2022-12-13T21:11:48.102Z,16.47
2022-12-13T21:14:22.951Z,16.47
2022-12-13T21:16:54.883Z,16.45
2022-12-13T21:19:37.572Z,16.44
2022-12-13T21:22:08.422Z,16.43
2022-12-13T21:24:36.746Z,16.41
2022-12-13T21:27:05.511Z,16.39
2022-12-13T21:29:33.804Z,16.39
2022-12-13T21:32:02.184Z,16.38
2022-12-13T21:34:31.031Z,16.38
2022-12-13T21:36:59.347Z,16.37
2022-12-13T21:39:31.858Z,16.36
2022-12-13T21:42:00.271Z,16.34
2022-12-13T21:44:29.363Z,16.34
2022-12-13T21:47:13.534Z,16.32
2022-12-13T21:49:42.426Z,16.30
2022-12-13T21:52:18.929Z,16.28
2022-12-13T21:54:47.388Z,16.27
2022-12-13T21:57:33.931Z,16.26
2022-12-13T22:00:02.276Z,16.25
2022-12-13T22:02:30.716Z,16.25
2022-12-13T22:05:00.053Z,16.22
2022-12-13T22:07:31.015Z,16.21
2022-12-13T22:10:00.969Z,16.20
2022-12-13T22:12:38.052Z,16.18
2022-12-13T22:15:10.809Z,16.18
2022-12-13T22:17:40.235Z,16.17
2022-12-13T22:20:12.403Z,16.18
2022-12-13T22:22:42.521Z,16.16
2022-12-13T22:25:11.712Z,16.16
2022-12-13T22:27:40.075Z,16.15
2022-12-13T22:30:09.200Z,16.13
2022-12-13T22:32:37.534Z,16.12
2022-12-13T22:35:06.080Z,16.09
2022-12-13T22:37:34.520Z,16.06
2022-12-13T22:40:02.856Z,16.05
2022-12-13T22:42:31.258Z,16.03
2022-12-13T22:44:59.694Z,16.01
2022-12-13T22:47:28.357Z,16.00
2022-12-13T22:49:57.701Z,15.99
2022-12-13T22:52:31.911Z,15.99
2022-12-13T22:55:01.993Z,16.00
2022-12-13T22:57:30.527Z,16.01
2022-12-13T22:59:58.814Z,16.01
2022-12-13T23:02:27.179Z,16.03
2022-12-13T23:04:55.591Z,16.03
2022-12-13T23:07:24.013Z,16.03
2022-12-13T23:09:52.397Z,16.03
2022-12-13T23:12:38.795Z,16.02
2022-12-13T23:15:08.002Z,16.03
2022-12-13T23:17:36.467Z,16.04
2022-12-13T23:20:05.390Z,16.04
2022-12-13T23:22:33.756Z,16.03
2022-12-13T23:25:02.085Z,16.02
2022-12-13T23:27:30.385Z,16.01
2022-12-13T23:29:58.709Z,16.01
2022-12-13T23:32:27.222Z,16.01
2022-12-13T23:34:55.556Z,16.01
2022-12-13T23:37:24.890Z,16.00
2022-12-13T23:39:53.213Z,16.02
2022-12-13T23:42:21.508Z,16.02
2022-12-13T23:44:49.811Z,16.01
2022-12-13T23:47:18.147Z,16.00
2022-12-13T23:49:46.430Z,15.99
2022-12-13T23:52:16.712Z,15.99
2022-12-13T23:54:45.216Z,16.01
2022-12-13T23:57:13.532Z,16.02
2022-12-13T23:59:42.145Z,16.04
